createdAt,value
2022-11-18T00:00:16.129Z,12.75
2022-11-18T00:03:17.976Z,8.63
2022-11-18T00:06:24.455Z,10.20
2022-11-18T00:09:26.268Z,9.43
2022-11-18T00:12:46.986Z,9.70
2022-11-18T00:15:48.719Z,8.73
2022-11-18T00:18:50.450Z,9.00
2022-11-18T00:21:52.465Z,7.32
2022-11-18T00:24:54.302Z,8.88
2022-11-18T00:27:56.244Z,10.07
2022-11-18T00:31:02.510Z,10.07
2022-11-18T00:34:04.367Z,10.83
2022-11-18T00:37:06.213Z,9.60
2022-11-18T00:40:08.507Z,9.35
2022-11-18T00:43:10.224Z,11.18
2022-11-18T00:46:12.752Z,6.63
2022-11-18T00:49:14.775Z,6.50
2022-11-18T00:52:16.661Z,12.75
2022-11-18T00:55:18.483Z,12.05
2022-11-18T00:58:20.225Z,11.07
2022-11-18T01:01:22.048Z,9.25
2022-11-18T01:04:23.978Z,9.23
2022-11-18T01:07:27.769Z,11.52
2022-11-18T01:10:29.867Z,9.50
2022-11-18T01:13:31.606Z,10.32
2022-11-18T01:16:33.337Z,8.27
2022-11-18T01:19:35.142Z,11.93
2022-11-18T01:22:40.328Z,10.77
2022-11-18T01:25:48.461Z,12.18
2022-11-18T01:28:51.342Z,9.93
2022-11-18T01:32:23.896Z,14.30
2022-11-18T01:35:16.685Z,9.52
2022-11-18T01:38:20.098Z,9.45
2022-11-18T01:41:24.910Z,10.93
2022-11-18T01:44:52.048Z,10.98
2022-11-18T01:48:04.697Z,9.13
2022-11-18T01:51:11.726Z,8.77
2022-11-18T01:57:22.609Z,7.63
2022-11-18T02:00:24.357Z,8.30
2022-11-18T02:03:27.747Z,6.75
2022-11-18T02:06:30.171Z,9.13
2022-11-18T02:09:32.436Z,9.20
2022-11-18T02:12:35.674Z,8.93
2022-11-18T02:16:03.283Z,13.68
2022-11-18T02:19:31.260Z,8.90
2022-11-18T02:22:54.424Z,7.53
2022-11-18T02:26:02.461Z,9.73
2022-11-18T02:29:12.796Z,9.65
2022-11-18T02:32:21.350Z,7.28
2022-11-18T02:35:24.084Z,8.95
2022-11-18T02:38:32.679Z,9.70
2022-11-18T02:41:36.072Z,10.48
2022-11-18T02:44:40.233Z,9.75
2022-11-18T02:47:44.709Z,10.40
2022-11-18T02:50:50.218Z,9.20
2022-11-18T02:53:54.852Z,9.25
2022-11-18T02:56:57.644Z,10.77
2022-11-18T03:00:00.286Z,8.80
2022-11-18T03:03:24.985Z,7.55
2022-11-18T03:06:36.979Z,7.18
2022-11-18T03:09:40.613Z,8.00
2022-11-18T03:12:51.733Z,7.45
2022-11-18T03:16:07.144Z,9.40
2022-11-18T03:19:22.510Z,8.85
2022-11-18T03:22:26.199Z,6.55
2022-11-18T03:25:44.780Z,6.85
2022-11-18T03:28:46.494Z,9.45
2022-11-18T03:31:57.222Z,9.07
2022-11-18T03:35:02.566Z,9.32
2022-11-18T03:38:16.663Z,10.63
2022-11-18T03:41:19.383Z,5.70
2022-11-18T03:44:24.236Z,8.77
2022-11-18T03:47:41.194Z,5.90
2022-11-18T03:50:47.943Z,5.90
2022-11-18T03:53:57.953Z,8.85
2022-11-18T03:57:09.592Z,7.97
2022-11-18T04:00:13.501Z,5.57
2022-11-18T04:03:16.029Z,5.07
2022-11-18T04:07:02.554Z,6.15
2022-11-18T04:10:10.789Z,5.63
2022-11-18T04:13:18.400Z,7.72
2022-11-18T04:16:20.214Z,8.43
2022-11-18T04:19:22.262Z,6.03
2022-11-18T04:22:24.411Z,6.80
2022-11-18T04:25:26.742Z,8.23
2022-11-18T04:28:28.378Z,4.38
2022-11-18T04:31:30.384Z,6.00
2022-11-18T04:34:32.111Z,8.25
2022-11-18T04:37:34.362Z,4.88
2022-11-18T04:40:36.220Z,7.88
2022-11-18T04:43:37.987Z,6.28
2022-11-18T04:46:43.580Z,6.05
2022-11-18T04:49:45.370Z,6.70
2022-11-18T04:52:47.189Z,6.45
2022-11-18T04:55:49.173Z,6.43
2022-11-18T04:58:50.965Z,6.82
2022-11-18T05:01:53.571Z,8.90
2022-11-18T05:04:55.335Z,6.10
2022-11-18T05:07:57.237Z,6.03
2022-11-18T05:11:19.027Z,8.07
2022-11-18T05:14:20.983Z,4.45
2022-11-18T05:17:22.763Z,8.88
2022-11-18T05:20:26.850Z,11.00
2022-11-18T05:23:29.045Z,7.05
2022-11-18T05:26:30.964Z,9.57
2022-11-18T05:29:33.714Z,8.95
2022-11-18T05:32:35.734Z,8.93
2022-11-18T05:35:37.486Z,6.70
2022-11-18T05:38:39.415Z,9.95
2022-11-18T05:41:59.831Z,5.57
2022-11-18T05:45:01.634Z,6.60
2022-11-18T05:48:07.120Z,8.13
2022-11-18T05:51:09.099Z,4.15
2022-11-18T05:54:12.934Z,6.88
2022-11-18T05:57:15.062Z,4.72
2022-11-18T06:00:18.650Z,6.07
2022-11-18T06:03:30.768Z,5.00
2022-11-18T06:06:33.043Z,3.72
2022-11-18T06:09:37.233Z,4.82
2022-11-18T06:12:42.305Z,8.05
2022-11-18T06:15:44.669Z,8.05
2022-11-18T06:18:46.600Z,5.30
2022-11-18T06:21:48.695Z,5.88
2022-11-18T06:24:50.645Z,7.43
2022-11-18T06:27:54.370Z,11.77
2022-11-18T06:30:56.235Z,8.18
2022-11-18T06:33:58.159Z,11.02
2022-11-18T06:37:00.030Z,9.38
2022-11-18T06:40:02.050Z,8.00
2022-11-18T06:43:26.682Z,6.78
2022-11-18T06:46:47.164Z,7.32
2022-11-18T06:49:48.990Z,6.40
2022-11-18T06:52:50.815Z,5.68
2022-11-18T06:55:52.844Z,7.85
2022-11-18T06:58:56.007Z,6.57
2022-11-18T07:01:57.777Z,5.00
2022-11-18T07:04:59.617Z,5.65
2022-11-18T07:08:01.517Z,10.10
2022-11-18T07:11:05.509Z,10.45
2022-11-18T07:14:08.752Z,9.07
2022-11-18T07:17:11.065Z,11.43
2022-11-18T07:20:12.984Z,8.77
2022-11-18T07:23:14.849Z,17.33
2022-11-18T07:26:17.220Z,9.57
2022-11-18T07:29:19.491Z,10.07
2022-11-18T07:32:21.526Z,9.88
2022-11-18T07:35:23.353Z,13.20
2022-11-18T07:38:25.471Z,12.43
2022-11-18T07:41:29.690Z,10.77
2022-11-18T07:44:31.385Z,7.88
2022-11-18T07:47:34.388Z,7.68
2022-11-18T07:50:36.365Z,11.98
2022-11-18T07:53:38.644Z,9.57
2022-11-18T07:56:43.543Z,9.95
2022-11-18T07:59:45.481Z,9.82
2022-11-18T08:02:50.482Z,10.20
2022-11-18T08:05:52.454Z,11.95
2022-11-18T08:08:54.306Z,12.40
2022-11-18T08:11:56.502Z,8.93
2022-11-18T08:14:58.486Z,9.27
2022-11-18T08:18:00.372Z,10.90
2022-11-18T08:21:03.739Z,10.88
2022-11-18T08:24:06.050Z,7.20
2022-11-18T08:27:08.319Z,11.15
2022-11-18T08:30:10.946Z,9.80
2022-11-18T08:33:12.984Z,9.82
2022-11-18T08:36:18.216Z,10.82
2022-11-18T08:39:20.299Z,11.63
2022-11-18T08:42:24.464Z,12.13
2022-11-18T08:45:26.997Z,10.38
2022-11-18T08:48:28.801Z,9.10
2022-11-18T08:51:30.896Z,10.75
2022-11-18T08:54:32.796Z,9.77
2022-11-18T08:57:34.983Z,11.18
2022-11-18T09:00:38.929Z,9.75
2022-11-18T09:03:41.454Z,8.35
2022-11-18T09:06:43.418Z,8.43
2022-11-18T09:09:45.394Z,13.73
2022-11-18T09:12:47.455Z,9.15
2022-11-18T09:15:49.445Z,11.77
2022-11-18T09:18:51.463Z,13.07
2022-11-18T09:21:55.232Z,10.70
2022-11-18T09:24:57.546Z,9.13
2022-11-18T09:27:59.615Z,11.75
2022-11-18T09:31:11.109Z,9.07
2022-11-18T09:34:13.533Z,11.93
2022-11-18T09:37:15.451Z,11.32
2022-11-18T09:40:18.472Z,9.77
2022-11-18T09:43:29.933Z,12.73
2022-11-18T09:46:55.955Z,11.48
2022-11-18T09:50:26.930Z,9.43
2022-11-18T09:53:28.208Z,9.20
2022-11-18T09:56:30.220Z,9.20
2022-11-18T09:59:33.347Z,9.23
2022-11-18T10:02:47.431Z,8.55
2022-11-18T10:06:07.422Z,7.68
2022-11-18T10:09:17.246Z,9.98
2022-11-18T10:12:36.420Z,11.23
2022-11-18T10:16:04.851Z,9.43
2022-11-18T10:19:26.801Z,11.35
2022-11-18T10:22:53.480Z,14.82
2022-11-18T10:25:55.589Z,10.77
2022-11-18T10:28:58.132Z,17.10
2022-11-18T10:32:10.362Z,15.50
2022-11-18T10:35:26.461Z,10.95
2022-11-18T10:38:28.322Z,17.17
2022-11-18T10:41:32.400Z,11.95
2022-11-18T10:44:41.773Z,12.48
2022-11-18T10:47:44.165Z,15.23
2022-11-18T10:50:55.574Z,12.52
2022-11-18T10:54:26.738Z,9.63
2022-11-18T10:57:30.242Z,12.05
2022-11-18T11:00:33.325Z,9.45
2022-11-18T11:03:39.043Z,8.88
2022-11-18T11:06:40.951Z,11.65
2022-11-18T11:09:43.152Z,7.95
2022-11-18T11:13:00.522Z,6.03
2022-11-18T11:16:03.991Z,9.93
2022-11-18T11:19:06.146Z,12.15
2022-11-18T11:22:14.944Z,6.72
2022-11-18T11:29:09.629Z,7.05
2022-11-18T11:32:19.289Z,7.03
2022-11-18T11:35:34.266Z,8.10
2022-11-18T11:39:02.946Z,8.52
2022-11-18T11:42:14.663Z,8.23
2022-11-18T11:45:29.034Z,8.18
2022-11-18T11:48:45.009Z,8.38
2022-11-18T11:52:09.454Z,9.55
2022-11-18T11:55:23.075Z,7.95
2022-11-18T11:58:55.915Z,6.85
2022-11-18T12:02:16.457Z,4.00
2022-11-18T12:05:34.432Z,3.50
2022-11-18T12:08:37.899Z,7.25
2022-11-18T12:11:52.906Z,3.67
2022-11-18T12:14:58.173Z,2.97
2022-11-18T12:18:09.321Z,6.18
2022-11-18T12:21:46.112Z,2.22
2022-11-18T12:24:48.158Z,11.43
2022-11-18T12:27:51.179Z,4.15
2022-11-18T12:31:20.818Z,3.22
2022-11-18T12:34:25.654Z,4.85
2022-11-18T12:37:27.605Z,4.47
2022-11-18T12:40:52.514Z,3.42
2022-11-18T12:44:01.357Z,1.75
2022-11-18T12:47:04.483Z,4.13
2022-11-18T12:50:10.983Z,1.10
2022-11-18T12:53:36.767Z,2.08
2022-11-18T12:56:38.859Z,4.13
2022-11-18T12:59:40.866Z,1.40
2022-11-18T13:02:52.146Z,2.00
2022-11-18T13:06:07.677Z,1.75
2022-11-18T13:09:18.684Z,5.00
2022-11-18T13:12:20.774Z,1.15
2022-11-18T13:15:42.377Z,1.10
2022-11-18T13:18:52.303Z,1.08
2022-11-18T13:22:14.833Z,1.83
2022-11-18T13:25:24.940Z,1.67
2022-11-18T13:28:41.214Z,1.58
2022-11-18T13:31:49.660Z,2.50
2022-11-18T13:34:54.014Z,1.95
2022-11-18T13:38:01.156Z,3.22
2022-11-18T13:41:23.045Z,1.40
2022-11-18T13:44:27.454Z,2.80
2022-11-18T13:47:53.545Z,3.33
2022-11-18T13:50:56.637Z,1.75
2022-11-18T13:53:58.873Z,1.75
2022-11-18T13:57:01.245Z,2.08
2022-11-18T14:00:07.410Z,1.95
2022-11-18T14:03:25.050Z,3.60
2022-11-18T14:06:38.709Z,3.50
2022-11-18T14:09:53.243Z,3.22
2022-11-18T14:16:19.790Z,1.80
2022-11-18T14:19:31.230Z,2.50
2022-11-18T14:22:33.790Z,1.33
2022-11-18T14:25:37.442Z,2.30
2022-11-18T14:28:39.964Z,4.35
2022-11-18T14:31:42.824Z,1.80
2022-11-18T14:34:44.928Z,3.80
2022-11-18T14:37:47.067Z,1.33
2022-11-18T14:41:00.253Z,1.50
2022-11-18T14:44:02.258Z,3.00
2022-11-18T14:47:18.661Z,4.95
2022-11-18T14:50:20.582Z,2.85
2022-11-18T14:53:22.969Z,2.58
2022-11-18T14:56:27.960Z,4.95
2022-11-18T14:59:30.132Z,5.10
2022-11-18T15:02:32.321Z,1.73
2022-11-18T15:05:35.437Z,2.42
2022-11-18T15:08:37.795Z,4.15
2022-11-18T15:11:40.119Z,2.20
2022-11-18T15:14:42.138Z,2.92
2022-11-18T15:17:44.046Z,2.58
2022-11-18T15:20:45.942Z,2.13
2022-11-18T15:23:48.022Z,7.00
2022-11-18T15:26:50.139Z,3.25
2022-11-18T15:29:54.318Z,2.92
2022-11-18T15:32:57.525Z,2.33
2022-11-18T15:35:59.478Z,3.55
2022-11-18T15:39:01.324Z,2.40
2022-11-18T15:42:04.788Z,3.53
2022-11-18T15:45:07.080Z,1.25
2022-11-18T15:48:11.501Z,3.22
2022-11-18T15:51:13.517Z,3.17
2022-11-18T15:54:15.394Z,1.55
2022-11-18T15:57:17.518Z,3.97
2022-11-18T16:00:19.638Z,2.50
2022-11-18T16:03:21.425Z,3.03
2022-11-18T16:06:23.583Z,2.47
2022-11-18T16:09:45.483Z,2.33
2022-11-18T16:12:47.518Z,2.40
2022-11-18T16:15:49.450Z,3.70
2022-11-18T16:18:55.492Z,4.65
2022-11-18T16:21:57.575Z,2.40
2022-11-18T16:24:59.867Z,4.13
2022-11-18T16:28:07.254Z,3.30
2022-11-18T16:31:28.162Z,4.68
2022-11-18T16:34:30.334Z,4.43
2022-11-18T16:37:32.760Z,4.65
2022-11-18T16:40:34.536Z,1.98
2022-11-18T16:43:36.528Z,4.82
2022-11-18T16:46:40.727Z,2.40
2022-11-18T16:49:43.382Z,5.38
2022-11-18T16:52:45.394Z,2.75
2022-11-18T16:55:47.642Z,3.30
2022-11-18T16:58:49.903Z,8.02
2022-11-18T17:01:53.851Z,4.70
2022-11-18T17:04:55.735Z,5.10
2022-11-18T17:07:58.166Z,8.00
2022-11-18T17:11:10.464Z,5.28
2022-11-18T17:14:12.759Z,5.75
2022-11-18T17:17:14.684Z,4.63
2022-11-18T17:20:17.633Z,3.60
2022-11-18T17:23:20.629Z,6.32
2022-11-18T17:26:25.042Z,8.20
2022-11-18T17:29:27.730Z,7.78
2022-11-18T17:32:30.887Z,4.85
2022-11-18T17:35:32.857Z,4.32
2022-11-18T17:38:36.826Z,6.18
2022-11-18T17:41:58.292Z,4.63
2022-11-18T17:45:00.366Z,5.57
2022-11-18T17:48:02.508Z,9.18
2022-11-18T17:51:05.868Z,6.10
2022-11-18T17:54:08.917Z,6.68
2022-11-18T17:57:10.963Z,6.18
2022-11-18T18:00:13.648Z,5.60
2022-11-18T18:03:15.922Z,6.50
2022-11-18T18:06:21.320Z,6.95
2022-11-18T18:09:31.026Z,7.85
2022-11-18T18:12:53.876Z,6.60
2022-11-18T18:16:04.627Z,5.68
2022-11-18T18:19:07.886Z,5.35
2022-11-18T18:22:09.961Z,5.13
2022-11-18T18:25:12.408Z,7.68
2022-11-18T18:28:14.752Z,4.95
2022-11-18T18:31:17.356Z,6.13
2022-11-18T18:34:19.759Z,7.43
2022-11-18T18:37:22.313Z,5.00
2022-11-18T18:40:24.437Z,6.65
2022-11-18T18:43:26.397Z,7.13
2022-11-18T18:46:29.680Z,7.53
2022-11-18T18:49:32.514Z,7.75
2022-11-18T18:52:34.740Z,7.35
2022-11-18T18:55:41.939Z,7.85
2022-11-18T18:58:47.017Z,8.93
2022-11-18T19:01:49.097Z,5.72
2022-11-18T19:04:52.715Z,6.30
2022-11-18T19:07:54.607Z,5.82
2022-11-18T19:10:56.574Z,5.97
2022-11-18T19:14:06.981Z,6.95
2022-11-18T19:17:12.061Z,8.52
2022-11-18T19:20:33.988Z,6.70
2022-11-18T19:23:36.385Z,7.70
2022-11-18T19:26:38.667Z,9.70
2022-11-18T19:29:40.815Z,6.22
2022-11-18T19:32:43.054Z,6.18
2022-11-18T19:35:44.957Z,6.90
2022-11-18T19:38:50.131Z,6.20
2022-11-18T19:41:52.280Z,5.53
2022-11-18T19:44:54.455Z,7.70
2022-11-18T19:47:57.406Z,6.60
2022-11-18T19:51:11.816Z,8.77
2022-11-18T19:54:13.864Z,10.52
2022-11-18T19:57:15.788Z,7.93
2022-11-18T20:00:18.525Z,5.35
2022-11-18T20:03:21.874Z,6.53
2022-11-18T20:06:25.827Z,8.25
2022-11-18T20:09:29.450Z,9.38
2022-11-18T20:12:31.980Z,6.85
2022-11-18T20:15:34.343Z,6.10
2022-11-18T20:18:37.640Z,9.18
2022-11-18T20:21:43.542Z,5.85
2022-11-18T20:24:45.760Z,5.97
2022-11-18T20:27:47.672Z,5.25
2022-11-18T20:30:54.604Z,8.02
2022-11-18T20:33:57.150Z,6.75
2022-11-18T20:37:02.452Z,6.45
2022-11-18T20:40:05.076Z,9.90
2022-11-18T20:43:14.022Z,5.97
2022-11-18T20:46:20.957Z,11.68
2022-11-18T20:49:24.948Z,7.28
2022-11-18T20:52:29.650Z,7.40
2022-11-18T20:55:37.330Z,7.55
2022-11-18T20:58:43.386Z,5.88
2022-11-18T21:01:46.081Z,5.78
2022-11-18T21:04:48.311Z,8.07
2022-11-18T21:07:53.604Z,6.38
2022-11-18T21:11:01.597Z,7.78
2022-11-18T21:14:24.595Z,8.13
2022-11-18T21:17:27.095Z,3.55
2022-11-18T21:20:48.615Z,13.45
2022-11-18T21:23:57.072Z,5.32
2022-11-18T21:27:02.081Z,7.07
2022-11-18T21:30:04.437Z,6.35
2022-11-18T21:33:07.018Z,9.45
2022-11-18T21:36:09.550Z,12.70
2022-11-18T21:39:12.355Z,8.10
2022-11-18T21:42:14.900Z,9.13
2022-11-18T21:45:18.360Z,7.63
2022-11-18T21:48:20.630Z,7.28
2022-11-18T21:51:25.958Z,6.28
2022-11-18T21:54:28.084Z,7.03
2022-11-18T21:57:36.955Z,7.72
2022-11-18T22:00:39.278Z,9.15
2022-11-18T22:03:43.373Z,6.30
2022-11-18T22:06:45.487Z,6.82
2022-11-18T22:09:47.498Z,11.13
2022-11-18T22:12:50.553Z,6.10
2022-11-18T22:16:05.158Z,7.63
2022-11-18T22:19:08.480Z,7.68
2022-11-18T22:22:10.616Z,13.30
2022-11-18T22:25:12.937Z,7.38
2022-11-18T22:28:15.113Z,10.43
2022-11-18T22:31:22.377Z,7.80
2022-11-18T22:37:26.070Z,6.47
2022-11-18T22:40:28.130Z,7.43
2022-11-18T22:43:31.681Z,7.95
2022-11-18T22:46:34.123Z,7.10
2022-11-18T22:49:36.183Z,7.68
2022-11-18T22:52:38.016Z,7.25
2022-11-18T22:55:39.870Z,13.68
2022-11-18T22:58:41.866Z,7.40
2022-11-18T23:01:43.907Z,7.82
2022-11-18T23:04:46.390Z,8.57
2022-11-18T23:07:48.819Z,10.63
2022-11-18T23:10:51.273Z,7.03
2022-11-18T23:13:56.012Z,7.57
2022-11-18T23:16:58.138Z,12.55
2022-11-18T23:19:59.935Z,11.23
2022-11-18T23:23:01.743Z,7.22
2022-11-18T23:26:14.678Z,11.50
2022-11-18T23:29:17.089Z,10.23
2022-11-18T23:32:19.231Z,10.05
2022-11-18T23:35:21.023Z,9.60
2022-11-18T23:38:22.920Z,11.65
2022-11-18T23:41:24.722Z,13.73
2022-11-18T23:44:45.386Z,8.15
2022-11-18T23:47:47.217Z,8.57
2022-11-18T23:51:05.604Z,10.45
2022-11-18T23:54:08.657Z,12.05
2022-11-18T23:57:10.635Z,9.85
